Time;durP1;ratioP1;P1;durP2;ratioP2;P2;SDS_P1;SDS_P2;PMS_P1;PMS_P2;Temp;Humidity;BMP_temperature;BMP_pressure;BME280_temperature;BME280_humidity;BME280_pressure;Samples;Min_cycle;Max_cycle;Signal;HPM_P1;HPM_P2
2022/08/11 00:01:46;;;;;;;3.50;2.00;;;;;;;16.71;62.01;99113.44;106217;1279;25317;-77
2022/08/11 00:04:14;;;;;;;3.50;2.20;;;;;;;16.70;62.02;99116.73;106511;1280;22616;-77
2022/08/11 00:06:42;;;;;;;3.30;2.00;;;;;;;16.68;62.17;99117.66;106562;1280;137354;-77
2022/08/11 00:09:17;;;;;;;4.00;2.30;;;;;;;16.65;62.31;99113.96;106404;1280;24530;-77
2022/08/11 00:11:49;;;;;;;3.50;2.50;;;;;;;16.61;62.62;99113.17;106200;1280;136975;-77
2022/08/11 00:14:20;;;;;;;5.50;2.20;;;;;;;16.58;62.49;99113.98;105885;1280;25379;-77
2022/08/11 00:17:02;;;;;;;3.90;2.30;;;;;;;16.55;62.56;99117.66;106240;1277;22576;-78
2022/08/11 00:19:33;;;;;;;4.10;2.50;;;;;;;16.50;62.43;99118.23;106468;1279;23004;-78
2022/08/11 00:22:01;;;;;;;3.90;2.70;;;;;;;16.44;62.60;99118.48;105836;1280;22711;-77
2022/08/11 00:24:36;;;;;;;3.50;2.40;;;;;;;16.39;62.52;99116.27;105904;1280;136715;-76
2022/08/11 00:27:03;;;;;;;4.10;2.30;;;;;;;16.35;62.67;99116.51;106377;1279;23301;-77
2022/08/11 00:29:31;;;;;;;5.00;2.50;;;;;;;16.30;62.86;99118.08;106250;1280;136985;-77
2022/08/11 00:32:04;;;;;;;3.00;2.50;;;;;;;16.25;62.89;99119.64;106545;1279;23690;-77
2022/08/11 00:34:34;;;;;;;6.10;2.40;;;;;;;16.20;63.08;99116.70;106145;1280;22569;-77
2022/08/11 00:37:08;;;;;;;3.90;2.00;;;;;;;16.15;63.36;99110.73;105955;1279;138131;-77
2022/08/11 00:39:42;;;;;;;2.80;2.00;;;;;;;16.11;63.38;99110.06;106066;1279;24300;-77
2022/08/11 00:42:33;;;;;;;4.10;2.70;;;;;;;16.08;63.62;99110.52;106098;1279;137980;-77
2022/08/11 00:45:28;;;;;;;4.20;2.80;;;;;;;16.07;63.78;99110.41;105654;1280;23950;-77
2022/08/11 00:48:03;;;;;;;5.60;2.60;;;;;;;16.06;63.66;99108.05;106034;1280;137422;-77
2022/08/11 00:50:47;;;;;;;4.50;2.30;;;;;;;16.04;63.79;99106.05;105929;1280;24422;-77
2022/08/11 00:53:40;;;;;;;4.30;2.40;;;;;;;16.01;64.05;99107.14;106340;1279;137714;-76
2022/08/11 00:56:26;;;;;;;3.50;2.10;;;;;;;15.97;64.05;99105.20;106542;1280;23034;-76
2022/08/11 00:59:09;;;;;;;7.60;2.50;;;;;;;15.92;64.20;99104.27;105856;1279;137142;-77
2022/08/11 01:01:35;;;;;;;5.20;2.70;;;;;;;15.88;64.54;99109.73;105775;1279;22554;-77
2022/08/11 01:04:21;;;;;;;5.10;2.90;;;;;;;15.83;64.33;99108.88;105737;1280;24283;-77
2022/08/11 01:06:56;;;;;;;4.40;2.40;;;;;;;15.78;64.79;99105.44;105883;1280;136993;-77
2022/08/11 01:09:51;;;;;;;6.00;2.40;;;;;;;15.72;64.85;99104.86;106243;1280;22554;-77
2022/08/11 01:12:27;;;;;;;4.40;2.50;;;;;;;15.69;65.40;99107.04;105578;1279;137577;-78
2022/08/11 01:15:21;;;;;;;3.40;2.30;;;;;;;15.63;65.28;99108.97;105934;1279;22547;-77
2022/08/11 01:18:04;;;;;;;4.90;2.40;;;;;;;15.56;65.56;99106.00;105835;1280;136919;-77
2022/08/11 01:21:14;;;;;;;4.80;2.40;;;;;;;15.52;65.89;99102.02;105941;1279;22579;-78
2022/08/11 01:24:20;;;;;;;4.40;2.40;;;;;;;15.50;66.13;99104.92;105894;1280;137591;-78
2022/08/11 01:27:03;;;;;;;11.20;3.70;;;;;;;15.47;66.18;99098.23;105940;1279;22553;-78
2022/08/11 01:29:55;;;;;;;11.20;3.20;;;;;;;15.43;65.94;99100.51;105948;1278;137535;-78
2022/08/11 01:32:41;;;;;;;3.60;2.60;;;;;;;15.40;66.27;99103.77;105948;1277;22574;-78
2022/08/11 01:35:13;;;;;;;6.10;2.70;;;;;;;15.34;66.39;99101.75;106060;1277;137088;-78
2022/08/11 01:38:13;;;;;;;5.10;2.30;;;;;;;15.31;66.70;99104.80;106248;1277;24400;-78
2022/08/11 01:41:14;;;;;;;6.70;2.60;;;;;;;15.29;66.70;99102.36;106274;1277;24371;-78
2022/08/11 01:47:49;;;;;;;4.00;2.80;;;;;;;15.26;66.95;99098.43;105999;1277;137082;-78
2022/08/11 01:50:20;;;;;;;3.30;2.10;;;;;;;15.26;67.06;99097.95;106509;1277;24329;-78
2022/08/11 01:52:53;;;;;;;8.80;3.20;;;;;;;15.22;67.05;99107.60;105992;1277;22615;-78
2022/08/11 01:55:39;;;;;;;7.50;3.00;;;;;;;15.17;67.28;99106.27;106174;1280;24317;-78
2022/08/11 01:58:11;;;;;;;4.70;2.70;;;;;;;15.15;67.45;99105.18;106086;1279;24283;-77
2022/08/11 02:01:06;;;;;;;5.80;2.90;;;;;;;15.15;67.46;99110.77;106062;1277;137670;-77
2022/08/11 02:04:17;;;;;;;5.40;2.90;;;;;;;15.13;67.49;99109.73;105902;1277;22575;-77
2022/08/11 02:06:57;;;;;;;6.60;2.60;;;;;;;15.13;67.61;99105.88;105928;1277;137265;-77
2022/08/11 02:09:42;;;;;;;7.10;3.00;;;;;;;15.14;67.61;99102.16;106160;1277;22671;-77
2022/08/11 02:12:40;;;;;;;4.90;2.70;;;;;;;15.16;67.78;99105.96;106378;1277;137006;-77
2022/08/11 02:15:06;;;;;;;3.30;2.80;;;;;;;15.15;67.87;99103.77;106336;1277;30018;-77
2022/08/11 02:17:47;;;;;;;5.10;2.60;;;;;;;15.15;67.74;99102.95;106008;1277;137158;-77
2022/08/11 02:23:40;;;;;;;5.00;2.40;;;;;;;15.07;67.90;99100.88;105965;1277;137338;-78
2022/08/11 02:26:35;;;;;;;4.70;2.40;;;;;;;15.02;68.01;99098.80;106420;1277;25268;-77
2022/08/11 02:29:45;;;;;;;4.20;2.40;;;;;;;15.01;68.28;99101.15;105804;1277;138565;-78
2022/08/11 02:35:09;;;;;;;6.40;2.30;;;;;;;14.99;68.14;99095.10;106188;1277;137262;-77
2022/08/11 02:37:50;;;;;;;8.40;3.20;;;;;;;14.97;68.50;99098.37;106191;1277;22758;-78
2022/08/11 02:40:45;;;;;;;4.10;2.90;;;;;;;14.95;68.73;99099.66;106534;1277;23960;-77
2022/08/11 02:43:26;;;;;;;4.60;2.70;;;;;;;14.95;69.18;99098.17;105936;1277;138083;-78
2022/08/11 02:46:04;;;;;;;7.20;2.80;;;;;;;14.93;69.02;99098.60;106112;1277;30182;-78
2022/08/11 02:51:56;;;;;;;5.20;2.50;;;;;;;14.91;69.11;99097.59;105983;1278;25460;-78
2022/08/11 02:54:25;;;;;;;5.10;2.40;;;;;;;14.91;69.17;99094.90;105876;1277;137956;-77
2022/08/11 02:57:01;;;;;;;4.30;2.60;;;;;;;14.92;69.34;99092.11;106060;1277;24439;-77
2022/08/11 03:00:06;;;;;;;2.90;2.50;;;;;;;14.91;69.38;99089.98;106338;1277;137541;-77
2022/08/11 03:02:44;;;;;;;4.90;2.60;;;;;;;14.91;69.59;99092.98;105928;1277;22549;-77
2022/08/11 03:05:10;;;;;;;3.70;2.70;;;;;;;14.92;69.58;99095.13;106225;1278;138065;-80
2022/08/11 03:08:06;;;;;;;4.00;2.50;;;;;;;14.92;69.43;99095.45;106697;1277;22611;-77
2022/08/11 03:17:03;;;;;;;3.50;2.80;;;;;;;15.04;69.43;99106.60;106292;1277;24276;-77
2022/08/11 03:19:58;;;;;;;3.70;2.60;;;;;;;15.09;69.21;99101.72;106072;1277;22567;-79
2022/08/11 03:22:39;;;;;;;3.90;2.90;;;;;;;15.12;69.06;99106.20;106129;1277;25264;-79
2022/08/11 03:25:30;;;;;;;4.10;2.80;;;;;;;15.13;69.15;99109.51;106308;1277;137082;-77
2022/08/11 03:28:24;;;;;;;3.80;3.10;;;;;;;15.14;69.13;99102.61;106530;1277;23537;-78
2022/08/11 03:31:05;;;;;;;12.60;3.70;;;;;;;15.14;69.35;99103.86;106773;1277;137088;-78
2022/08/11 03:36:48;;;;;;;6.20;2.80;;;;;;;15.06;69.33;99106.69;106205;1277;137848;-78
2022/08/11 03:39:28;;;;;;;3.90;2.60;;;;;;;15.05;69.28;99108.25;106206;1277;22644;-77
2022/08/11 03:42:15;;;;;;;3.20;2.80;;;;;;;14.99;69.56;99107.48;106015;1277;137986;-78
2022/08/11 03:45:21;;;;;;;4.40;2.50;;;;;;;14.88;69.69;99105.68;105685;1278;25296;-78
2022/08/11 03:47:56;;;;;;;5.90;3.10;;;;;;;14.85;70.25;99109.32;105774;1278;137148;-78
2022/08/11 03:50:26;;;;;;;5.10;2.80;;;;;;;14.82;70.37;99104.13;106096;1278;24045;-78
2022/08/11 03:53:00;;;;;;;;;;;;;;;14.82;70.49;99101.77;105755;1278;137728;-78
2022/08/11 03:55:27;;;;;;;4.10;2.40;;;;;;;14.88;70.82;99099.20;106353;1277;23922;-78
2022/08/11 03:58:21;;;;;;;3.90;2.70;;;;;;;14.95;70.83;99100.33;106236;1277;22723;-78
2022/08/11 04:01:19;;;;;;;5.90;2.70;;;;;;;15.04;70.68;99097.02;106171;1277;137537;-78
2022/08/11 04:03:59;;;;;;;3.80;2.90;;;;;;;15.11;70.57;99099.39;106227;1277;25347;-78
2022/08/11 04:06:53;;;;;;;7.10;3.50;;;;;;;15.15;70.69;99097.33;106245;1277;137287;-78
2022/08/11 04:09:47;;;;;;;5.70;2.60;;;;;;;15.24;70.52;99090.79;105969;1280;22605;-78
2022/08/11 04:12:34;;;;;;;5.30;2.90;;;;;;;15.30;70.31;99091.08;105911;1277;137097;-77
2022/08/11 04:18:22;;;;;;;4.40;3.20;;;;;;;15.40;70.18;99090.27;106053;1277;137211;-77
2022/08/11 04:21:16;;;;;;;5.20;2.80;;;;;;;15.43;70.24;99091.89;105987;1278;24093;-77
2022/08/11 04:24:11;;;;;;;7.60;3.20;;;;;;;15.51;70.44;99092.18;106121;1277;137423;-77
2022/08/11 04:27:12;;;;;;;5.70;2.90;;;;;;;15.58;70.11;99094.27;106064;1277;25337;-77
2022/08/11 04:30:02;;;;;;;3.10;2.70;;;;;;;15.65;69.90;99092.27;106053;1277;138240;-77
2022/08/11 04:32:56;;;;;;;7.20;2.90;;;;;;;15.69;69.72;99094.13;106059;1277;23443;-78
2022/08/11 04:35:36;;;;;;;4.50;3.10;;;;;;;15.72;69.93;99094.65;105818;1278;137993;-77
2022/08/11 04:38:32;;;;;;;4.80;2.70;;;;;;;15.77;69.62;99100.98;105895;1277;23233;-77
2022/08/11 04:41:31;;;;;;;6.60;3.60;;;;;;;15.82;69.60;99100.25;106265;1277;137431;-77
2022/08/11 04:44:26;;;;;;;4.90;2.90;;;;;;;15.91;69.43;99106.02;105925;1277;25316;-77
2022/08/11 04:47:06;;;;;;;5.70;2.40;;;;;;;16.02;69.25;99105.33;106082;1277;137666;-77
2022/08/11 05:02:28;;;;;;;5.70;3.00;;;;;;;16.59;68.67;99118.77;106262;1277;22751;-77
2022/08/11 05:08:09;;;;;;;5.50;2.60;;;;;;;16.75;68.49;99122.35;106499;1277;22605;-77
2022/08/11 05:10:58;;;;;;;3.70;2.70;;;;;;;16.84;67.77;99120.77;105890;1280;22566;-77
2022/08/11 05:35:59;;;;;;;4.00;2.60;;;;;;;17.40;66.12;99119.95;105964;1280;137491;-79
2022/08/11 05:58:00;;;;;;;4.50;2.70;;;;;;;17.75;65.29;99137.45;106519;1278;22715;-76
2022/08/11 06:00:26;;;;;;;6.80;3.10;;;;;;;17.80;65.31;99140.20;106116;1277;137493;-77
2022/08/11 06:02:59;;;;;;;6.60;2.90;;;;;;;17.84;65.03;99141.08;106206;1278;23150;-78
2022/08/11 06:05:34;;;;;;;7.60;3.00;;;;;;;17.88;65.06;99140.77;105870;1279;137951;-78
2022/08/11 06:08:02;;;;;;;5.40;2.40;;;;;;;17.93;65.00;99141.27;106007;1277;22580;-78
2022/08/11 06:10:32;;;;;;;4.90;3.40;;;;;;;17.98;64.80;99141.33;106327;1277;30282;-78
2022/08/11 06:13:03;;;;;;;4.20;3.20;;;;;;;18.02;64.48;99140.01;106262;1277;137230;-78
2022/08/11 06:15:36;;;;;;;5.40;2.70;;;;;;;18.08;64.27;99141.27;106480;1279;23195;-79
2022/08/11 06:18:03;;;;;;;3.10;2.50;;;;;;;18.12;64.09;99134.90;106165;1277;137502;-78
2022/08/11 06:20:35;;;;;;;4.20;2.60;;;;;;;18.19;64.18;99139.03;106197;1277;22654;-78
2022/08/11 06:23:05;;;;;;;3.00;2.50;;;;;;;18.26;64.03;99138.08;106440;1277;137920;-77
2022/08/11 06:25:47;;;;;;;4.40;2.40;;;;;;;18.34;63.83;99137.30;106359;1277;22610;-78
2022/08/11 06:28:35;;;;;;;5.00;2.30;;;;;;;18.41;63.36;99134.85;106002;1277;22634;-75
2022/08/11 06:31:10;;;;;;;3.20;2.00;;;;;;;18.48;63.35;99139.02;105871;1279;137158;-76
2022/08/11 06:33:45;;;;;;;2.90;1.90;;;;;;;18.56;62.99;99139.05;105996;1280;24256;-77
2022/08/11 06:36:50;;;;;;;5.00;2.30;;;;;;;18.64;62.35;99137.65;106009;1279;137269;-77
2022/08/11 06:39:32;;;;;;;4.00;2.10;;;;;;;18.72;62.03;99142.59;106385;1277;25452;-76
2022/08/11 06:42:06;;;;;;;2.30;1.80;;;;;;;18.81;61.63;99139.81;106314;1278;138288;-76
2022/08/11 06:44:47;;;;;;;4.00;1.90;;;;;;;18.88;61.14;99138.52;106022;1278;22577;-77
2022/08/11 06:47:16;;;;;;;3.00;1.90;;;;;;;18.97;60.90;99138.09;105846;1278;137332;-77
2022/08/11 06:52:37;;;;;;;2.30;1.80;;;;;;;19.12;59.87;99132.87;106070;1278;23217;-78
2022/08/11 07:00:26;;;;;;;3.20;1.70;;;;;;;19.20;59.67;99131.67;105869;1277;138371;-76
2022/08/11 07:00:46;;;;;;;2.90;1.60;;;;;;;19.37;59.52;99127.46;106328;1277;137172;-76
2022/08/11 07:03:18;;;;;;;3.30;2.10;;;;;;;19.45;58.83;99128.13;106101;1277;23262;-76
2022/08/11 07:05:48;;;;;;;4.70;1.90;;;;;;;19.52;58.38;99132.17;106323;1278;138225;-76
2022/08/11 07:17:22;;;;;;;3.00;1.70;;;;;;;19.98;57.16;99124.31;106131;1277;137388;-76
2022/08/11 07:31:05;;;;;;;2.30;1.70;;;;;;;20.54;55.52;99115.59;106976;1277;137211;-76
2022/08/11 07:33:58;;;;;;;3.10;1.70;;;;;;;20.66;55.55;99110.27;106046;1277;22550;-77
2022/08/11 07:36:43;;;;;;;2.90;1.60;;;;;;;20.80;55.17;99106.45;106519;1280;137242;-76
2022/08/11 07:39:32;;;;;;;1.80;1.60;;;;;;;20.96;54.98;99108.95;106168;1277;22643;-77
2022/08/11 07:42:06;;;;;;;3.80;2.50;;;;;;;21.11;54.98;99104.20;107134;1277;137161;-78
2022/08/11 07:48:10;;;;;;;3.10;1.50;;;;;;;21.26;54.70;99108.23;106137;1279;24806;-78
2022/08/11 07:52:46;;;;;;;6.40;1.80;;;;;;;21.75;52.36;99100.95;106389;1278;30359;-77
2022/08/11 07:55:15;;;;;;;3.20;1.80;;;;;;;21.89;52.18;99099.61;106323;1277;137647;-77
2022/08/11 08:20:20;;;;;;;6.80;1.40;;;;;;;23.64;47.78;99092.68;106136;1277;23291;-77
2022/08/11 08:22:55;;;;;;;4.50;1.30;;;;;;;23.85;47.41;99091.30;106154;1277;23001;-76
2022/08/11 08:25:27;;;;;;;2.10;1.10;;;;;;;24.06;46.54;99084.93;106498;1277;22727;-76
2022/08/11 08:27:55;;;;;;;3.50;1.20;;;;;;;24.25;45.82;99084.30;106606;1279;22546;-76
2022/08/11 08:33:07;;;;;;;1.60;1.10;;;;;;;24.46;44.84;99085.56;106167;1277;25435;-75
2022/08/11 08:35:37;;;;;;;3.30;1.30;;;;;;;24.36;44.56;99088.44;106014;1277;138280;-75
2022/08/11 08:38:04;;;;;;;1.30;1.20;;;;;;;24.29;44.77;99087.36;106037;1277;22567;-75
2022/08/11 08:40:33;;;;;;;2.30;1.40;;;;;;;24.34;44.96;99080.83;106765;1277;23478;-76
2022/08/11 08:43:07;;;;;;;3.80;1.40;;;;;;;24.27;44.87;99087.84;106251;1278;137509;-75
2022/08/11 08:45:36;;;;;;;3.50;1.40;;;;;;;24.18;44.92;99085.27;106079;1279;24309;-75
2022/08/11 08:48:08;;;;;;;1.50;0.90;;;;;;;24.06;44.99;99083.58;105916;1279;137175;-75
2022/08/11 08:53:31;;;;;;;3.50;1.40;;;;;;;23.84;44.37;99078.02;106310;1277;137284;-76
2022/08/11 08:55:59;;;;;;;3.20;1.10;;;;;;;23.68;44.55;99073.73;106304;1277;22714;-76
2022/08/11 08:58:27;;;;;;;2.50;1.20;;;;;;;23.57;44.41;99069.67;106362;1277;23299;-76
2022/08/11 09:00:55;;;;;;;2.30;1.20;;;;;;;23.52;44.89;99069.79;105764;1277;137244;-76
2022/08/11 09:03:22;;;;;;;2.70;1.20;;;;;;;23.53;44.40;99069.52;105944;1277;23399;-76
2022/08/11 09:05:52;;;;;;;6.60;1.10;;;;;;;23.45;44.75;99068.92;105534;1279;137756;-77
2022/08/11 09:08:20;;;;;;;4.20;1.50;;;;;;;23.38;44.77;99068.70;105935;1278;22570;-76
2022/08/11 09:11:48;;;;;;;3.40;1.30;;;;;;;23.30;44.82;99064.60;106121;1278;22574;-76
2022/08/11 09:13:43;;;;;;;2.20;1.50;;;;;;;23.21;45.37;99069.95;106277;1277;23182;-76
2022/08/11 09:16:10;;;;;;;2.50;1.10;;;;;;;23.14;46.08;99074.34;106347;1278;22593;-76
2022/08/11 09:18:52;;;;;;;1.70;1.20;;;;;;;23.06;46.37;99072.23;105728;1280;137102;-76
2022/08/11 09:21:21;;;;;;;3.00;1.30;;;;;;;23.00;46.67;99070.55;106014;1280;25636;-74
2022/08/11 09:29:13;;;;;;;2.80;1.20;;;;;;;23.07;46.43;99063.16;105846;1277;137246;-76
2022/08/11 09:31:52;;;;;;;4.10;1.20;;;;;;;23.08;45.84;99064.96;106294;1277;23202;-75
2022/08/11 09:34:25;;;;;;;3.10;1.20;;;;;;;23.11;46.19;99057.84;106283;1279;24475;-76
2022/08/11 09:45:12;;;;;;;2.30;1.10;;;;;;;23.73;45.22;99046.65;105944;1279;24361;-75
2022/08/11 09:47:40;;;;;;;2.20;1.20;;;;;;;23.96;44.40;99045.46;105826;1279;137092;-75
2022/08/11 09:50:09;;;;;;;2.30;1.40;;;;;;;24.15;43.11;99043.05;106177;1278;27947;-76
2022/08/11 09:52:37;;;;;;;;;;;;;;;24.25;43.38;99043.42;106130;1278;22550;-75
2022/08/11 09:55:09;;;;;;;;;;;;;;;24.37;42.75;99039.15;106120;1280;124211;-76
2022/08/11 10:00:31;;;;;;;1.80;1.20;;;;;;;24.72;41.86;99031.56;104789;1278;137792;-75
2022/08/11 10:03:16;;;;;;;2.70;1.20;;;;;;;25.08;41.97;99027.77;105986;1277;24267;-76
2022/08/11 10:08:46;;;;;;;3.00;1.40;;;;;;;25.70;39.69;99021.00;105998;1278;23924;-75
2022/08/11 10:11:17;;;;;;;2.10;0.80;;;;;;;25.65;38.60;99024.34;105989;1277;137954;-76
2022/08/11 10:16:29;;;;;;;1.80;0.70;;;;;;;25.27;37.97;99022.11;106036;1276;29240;-75
2022/08/11 10:18:58;;;;;;;1.60;0.80;;;;;;;25.10;37.15;99019.35;106038;1276;137208;-76
2022/08/11 10:21:42;;;;;;;1.30;0.80;;;;;;;24.94;37.18;99018.91;106279;1277;23364;-76
2022/08/11 10:26:53;;;;;;;2.70;0.90;;;;;;;24.94;37.24;99012.15;106083;1275;30493;-76
2022/08/11 10:34:47;;;;;;;2.20;0.80;;;;;;;24.72;38.72;99004.27;106142;1277;22674;-75
2022/08/11 10:37:16;;;;;;;3.40;0.80;;;;;;;24.78;38.68;98994.77;106138;1278;137129;-75
2022/08/11 10:39:44;;;;;;;2.60;0.90;;;;;;;25.00;38.67;98992.36;105954;1277;25266;-76
2022/08/11 10:44:56;;;;;;;2.30;0.90;;;;;;;25.81;37.97;98982.08;106209;1278;22590;-76
2022/08/11 10:47:33;;;;;;;3.20;1.00;;;;;;;25.85;38.13;98981.77;105991;1277;137341;-76
2022/08/11 11:01:08;;;;;;;2.00;0.80;;;;;;;25.60;38.21;98966.27;105910;1278;137100;-75
2022/08/11 11:03:36;;;;;;;1.90;0.80;;;;;;;25.47;38.69;98972.95;105814;1278;22549;-75
2022/08/11 11:06:46;;;;;;;2.70;0.80;;;;;;;25.37;39.03;98967.69;106173;1277;138160;-75
2022/08/11 11:09:38;;;;;;;2.00;0.90;;;;;;;25.23;39.39;98965.43;106308;1278;22551;-75
2022/08/11 11:17:55;;;;;;;2.40;0.80;;;;;;;24.99;39.35;98961.45;106169;1277;137617;-75
2022/08/11 11:20:25;;;;;;;0.90;0.80;;;;;;;25.02;39.34;98961.38;105952;1278;25380;-75
2022/08/11 11:23:12;;;;;;;4.30;0.80;;;;;;;25.34;39.87;98953.34;106291;1277;137326;-75
2022/08/11 11:26:08;;;;;;;2.50;1.00;;;;;;;25.51;40.41;98952.90;106166;1276;22701;-75
2022/08/11 11:28:55;;;;;;;2.50;0.90;;;;;;;25.80;40.47;98946.73;106162;1277;30760;-75
2022/08/11 11:31:49;;;;;;;3.40;0.80;;;;;;;26.23;38.96;98940.73;106690;1278;25245;-75
2022/08/11 11:34:22;;;;;;;2.70;0.80;;;;;;;26.58;38.08;98936.49;106193;1278;22566;-75
2022/08/11 11:36:54;;;;;;;1.60;0.80;;;;;;;26.89;37.22;98939.98;106433;1277;137406;-75
2022/08/11 11:39:27;;;;;;;1.40;0.70;;;;;;;26.77;36.66;98948.46;105950;1277;24289;-75
2022/08/11 11:41:56;;;;;;;4.60;1.00;;;;;;;26.50;36.91;98942.63;106476;1277;137274;-75
2022/08/11 11:44:27;;;;;;;3.70;0.90;;;;;;;25.99;37.55;98939.13;106641;1277;25523;-75
2022/08/11 11:46:55;;;;;;;1.50;1.00;;;;;;;25.47;37.70;98935.84;105893;1280;138167;-75
2022/08/11 11:49:38;;;;;;;4.70;0.80;;;;;;;24.99;38.33;98933.14;105930;1278;22553;-75
2022/08/11 11:52:07;;;;;;;2.90;1.00;;;;;;;24.63;39.67;98935.33;106629;1277;25533;-75
2022/08/11 11:54:38;;;;;;;3.10;0.90;;;;;;;24.76;40.62;98933.48;105792;1278;137716;-75
2022/08/11 12:02:39;;;;;;;3.30;1.20;;;;;;;25.57;39.26;98924.00;106532;1277;22548;-75
2022/08/11 12:05:08;;;;;;;1.80;0.70;;;;;;;25.49;38.26;98916.09;106534;1276;137338;-76
2022/08/11 12:10:19;;;;;;;4.90;0.80;;;;;;;25.88;36.94;98906.40;107167;1277;22936;-75
2022/08/11 12:15:41;;;;;;;1.30;0.70;;;;;;;25.95;36.73;98900.61;107258;1277;24696;-75
2022/08/11 12:18:09;;;;;;;0.80;0.80;;;;;;;26.33;37.00;98895.69;106916;1277;137933;-75
2022/08/11 12:20:37;;;;;;;1.00;0.60;;;;;;;26.84;36.81;98883.66;106338;1277;22680;-75
2022/08/11 12:28:46;;;;;;;1.40;0.80;;;;;;;27.28;34.14;98873.81;106055;1277;22518;-75
2022/08/11 12:31:14;;;;;;;0.80;0.80;;;;;;;27.69;34.20;98871.28;106118;1277;137051;-75
2022/08/11 12:34:27;;;;;;;2.60;0.80;;;;;;;28.03;34.22;98879.44;106144;1278;22593;-75
2022/08/11 12:37:44;;;;;;;1.60;0.80;;;;;;;27.88;33.72;98883.59;106657;1277;22555;-74
2022/08/11 12:46:02;;;;;;;2.50;0.80;;;;;;;27.11;37.15;98910.82;106179;1278;22852;-77
2022/08/11 12:54:13;;;;;;;5.30;1.10;;;;;;;25.72;39.18;98946.94;106075;1278;137086;-76
2022/08/11 13:04:58;;;;;;;5.70;1.50;;;;;;;24.79;43.84;98954.63;105988;1278;22565;-75
2022/08/11 13:07:27;;;;;;;3.10;1.40;;;;;;;24.39;45.65;98955.84;106157;1278;22566;-75
2022/08/11 13:09:56;;;;;;;3.40;1.50;;;;;;;23.91;48.72;98952.55;106147;1278;22560;-75
2022/08/11 13:15:10;;;;;;;5.50;1.40;;;;;;;22.72;53.83;98961.38;106045;1277;22829;-76
2022/08/11 13:17:54;;;;;;;2.60;1.20;;;;;;;22.17;55.55;98974.32;106241;1277;137337;-76
2022/08/11 13:20:36;;;;;;;1.90;1.20;;;;;;;21.66;56.73;98986.50;106226;1277;23134;-76
2022/08/11 13:23:03;;;;;;;2.90;1.10;;;;;;;21.34;58.14;98985.81;105909;1277;137265;-78
2022/08/11 13:25:32;;;;;;;3.80;1.10;;;;;;;21.08;58.99;98986.14;105987;1277;22557;-76
2022/08/11 13:28:00;;;;;;;3.60;1.50;;;;;;;20.79;59.66;98986.92;106443;1277;24420;-77
2022/08/11 13:33:26;;;;;;;2.80;1.30;;;;;;;20.24;61.92;99009.15;105551;1280;22673;-77
2022/08/11 13:39:31;;;;;;;1.90;1.20;;;;;;;19.76;64.43;99004.86;106428;1277;22572;-77
2022/08/11 13:42:03;;;;;;;1.60;1.30;;;;;;;19.65;64.90;99006.96;105932;1278;137986;-77
2022/08/11 13:44:36;;;;;;;2.90;1.30;;;;;;;19.64;65.65;99012.55;105976;1278;24365;-77
2022/08/11 13:47:12;;;;;;;3.60;1.80;;;;;;;19.67;65.88;99017.31;106213;1277;137773;-77
2022/08/11 13:49:40;;;;;;;1.80;1.40;;;;;;;19.70;66.65;99012.55;106609;1277;22551;-77
2022/08/11 13:52:14;;;;;;;2.40;1.40;;;;;;;19.73;66.80;99011.36;106067;1277;22589;-77
2022/08/11 13:54:42;;;;;;;2.30;1.20;;;;;;;19.78;66.65;99009.67;105984;1277;137083;-77
2022/08/11 13:57:11;;;;;;;3.00;1.30;;;;;;;19.86;66.13;99007.11;106461;1277;22674;-77
2022/08/11 13:59:38;;;;;;;4.20;1.30;;;;;;;19.95;66.00;98998.94;105915;1277;137452;-76
2022/08/11 14:02:14;;;;;;;4.10;1.40;;;;;;;20.01;65.52;98992.67;105986;1277;24288;-77
2022/08/11 14:04:48;;;;;;;4.30;1.30;;;;;;;20.11;65.73;98993.88;105996;1278;24259;-76
2022/08/11 14:07:21;;;;;;;3.60;1.30;;;;;;;20.19;65.78;98994.28;106226;1277;137631;-76
2022/08/11 14:10:02;;;;;;;7.50;1.60;;;;;;;20.27;65.00;98992.14;106439;1277;25313;-76
2022/08/11 14:15:18;;;;;;;2.20;1.20;;;;;;;20.37;63.49;98980.16;106013;1277;22551;-76
2022/08/11 14:17:56;;;;;;;2.80;1.20;;;;;;;20.48;63.52;98975.20;106124;1277;137936;-76
2022/08/11 14:20:24;;;;;;;2.90;1.30;;;;;;;20.69;63.09;98971.23;106662;1276;22559;-76
2022/08/11 14:22:52;;;;;;;5.70;1.40;;;;;;;20.92;61.83;98968.55;106938;1277;137168;-75
2022/08/11 14:25:19;;;;;;;2.20;1.50;;;;;;;21.13;61.05;98964.67;106356;1277;23015;-76
2022/08/11 14:27:48;;;;;;;4.00;1.40;;;;;;;21.40;61.01;98967.40;106035;1277;22573;-75
2022/08/11 14:32:56;;;;;;;2.70;1.30;;;;;;;21.95;57.88;98959.50;106428;1277;22590;-76
2022/08/11 14:35:26;;;;;;;2.70;1.30;;;;;;;22.11;57.60;98958.46;105962;1277;137464;-76
2022/08/11 14:37:54;;;;;;;2.90;1.20;;;;;;;22.22;56.56;98952.02;106157;1276;24400;-76
2022/08/11 14:48:26;;;;;;;7.00;1.00;;;;;;;22.63;53.68;98938.26;106630;1277;137251;-75
2022/08/11 14:50:53;;;;;;;2.40;1.20;;;;;;;22.69;53.31;98934.20;106545;1277;22546;-75
2022/08/11 14:53:24;;;;;;;0.90;0.80;;;;;;;22.79;52.71;98934.02;107021;1277;137676;-76
2022/08/11 14:58:36;;;;;;;1.10;1.00;;;;;;;22.85;53.26;98922.91;107206;1277;23309;-76
2022/08/11 15:03:05;;;;;;;2.00;1.10;;;;;;;22.80;53.10;98923.59;106451;1277;137326;-76
2022/08/11 15:03:54;;;;;;;1.50;0.90;;;;;;;22.73;53.49;98926.19;106636;1277;25320;-76
2022/08/11 15:06:21;;;;;;;1.20;1.10;;;;;;;22.75;54.21;98931.70;106317;1278;138367;-76
2022/08/11 15:08:54;;;;;;;1.00;0.80;;;;;;;22.83;54.58;98928.75;106740;1277;26060;-75
2022/08/11 15:14:04;;;;;;;1.60;1.30;;;;;;;23.17;54.43;98922.94;106508;1280;23449;-76
2022/08/11 15:19:14;;;;;;;2.80;1.10;;;;;;;23.53;52.80;98918.75;106201;1279;136938;-76
2022/08/11 15:24:37;;;;;;;2.30;0.90;;;;;;;23.92;51.44;98926.70;106329;1277;137157;-76
2022/08/11 15:38:01;;;;;;;2.40;1.00;;;;;;;24.10;50.31;98922.23;106028;1277;22713;-75
2022/08/11 15:46:22;;;;;;;1.30;0.90;;;;;;;24.76;47.71;98914.67;106795;1277;22555;-75
2022/08/11 15:49:10;;;;;;;2.90;1.10;;;;;;;24.93;47.37;98919.19;106648;1279;137200;-75
2022/08/11 15:52:01;;;;;;;5.90;1.00;;;;;;;25.14;46.30;98919.66;106006;1277;22639;-74
2022/08/11 15:54:30;;;;;;;1.90;0.90;;;;;;;25.15;46.08;98918.80;105856;1278;137512;-74
2022/08/11 15:57:00;;;;;;;0.70;0.70;;;;;;;25.24;46.46;98920.23;105782;1280;23064;-74
2022/08/11 16:04:58;;;;;;;0.90;0.80;;;;;;;25.69;45.73;98912.30;105857;1277;138602;-75
2022/08/11 16:07:28;;;;;;;2.60;0.90;;;;;;;25.84;45.94;98909.48;106210;1277;24221;-73
2022/08/11 16:10:07;;;;;;;1.50;0.90;;;;;;;25.97;45.52;98902.94;106215;1277;25443;-75
2022/08/11 16:12:39;;;;;;;0.80;0.70;;;;;;;26.07;45.39;98900.79;105756;1277;137260;-76
2022/08/11 16:18:02;;;;;;;1.20;1.10;;;;;;;26.35;44.95;98904.55;106070;1278;137437;-74
2022/08/11 16:20:45;;;;;;;1.20;1.10;;;;;;;26.51;44.32;98903.64;105796;1280;22852;-74
2022/08/11 16:23:14;;;;;;;1.20;0.90;;;;;;;26.45;43.94;98908.25;105969;1277;137326;-76
2022/08/11 16:25:41;;;;;;;2.00;1.10;;;;;;;26.42;44.28;98907.43;106487;1277;25333;-74
2022/08/11 16:28:11;;;;;;;1.70;1.00;;;;;;;26.22;43.87;98900.92;105900;1276;22663;-76
2022/08/11 16:30:41;;;;;;;3.00;1.10;;;;;;;25.88;44.07;98896.91;105921;1277;137084;-74
2022/08/11 16:33:10;;;;;;;2.50;1.20;;;;;;;25.44;45.09;98902.31;106252;1277;24305;-74
2022/08/11 16:41:09;;;;;;;1.30;1.10;;;;;;;24.20;48.67;98909.98;105785;1278;137216;-77
2022/08/11 16:49:14;;;;;;;2.50;1.10;;;;;;;23.31;51.63;98899.45;105904;1278;137140;-75
2022/08/11 16:52:09;;;;;;;5.20;1.60;;;;;;;23.06;52.46;98893.31;106380;1277;23230;-75
2022/08/11 16:54:38;;;;;;;2.70;1.50;;;;;;;22.83;53.59;98892.91;105725;1277;137344;-75
2022/08/11 16:59:53;;;;;;;1.70;1.50;;;;;;;22.52;56.86;98901.98;106305;1277;137473;-76
2022/08/11 17:13:57;;;;;;;3.80;1.70;;;;;;;21.68;59.71;98908.98;105985;1277;26560;-78
2022/08/11 17:16:31;;;;;;;2.60;1.80;;;;;;;21.62;60.70;98908.86;105841;1277;23043;-78
2022/08/11 17:19:07;;;;;;;3.50;1.70;;;;;;;21.62;60.47;98912.19;105790;1280;138781;-78
2022/08/11 17:24:27;;;;;;;3.00;1.70;;;;;;;21.59;60.36;98909.24;106100;1277;138064;-77